sensor_id;sensor_type;location;lat;lon;timestamp;temperature;humidity
65374;SHT31;52070;53.760;9.678;2024-02-21T00:00:49;9.00;90.43
65374;SHT31;52070;53.760;9.678;2024-02-21T00:03:16;9.00;90.39
65374;SHT31;52070;53.760;9.678;2024-02-21T00:05:44;8.98;90.42
65374;SHT31;52070;53.760;9.678;2024-02-21T00:08:11;9.01;90.49
65374;SHT31;52070;53.760;9.678;2024-02-21T00:10:38;9.01;90.69
65374;SHT31;52070;53.760;9.678;2024-02-21T00:13:05;8.94;90.99
65374;SHT31;52070;53.760;9.678;2024-02-21T00:15:32;8.92;91.25
65374;SHT31;52070;53.760;9.678;2024-02-21T00:17:59;8.92;91.48
65374;SHT31;52070;53.760;9.678;2024-02-21T00:20:26;8.91;91.57
65374;SHT31;52070;53.760;9.678;2024-02-21T00:22:54;8.97;91.46
65374;SHT31;52070;53.760;9.678;2024-02-21T00:25:21;8.96;91.42
65374;SHT31;52070;53.760;9.678;2024-02-21T00:27:48;8.97;91.33
65374;SHT31;52070;53.760;9.678;2024-02-21T00:30:15;9.01;91.27
65374;SHT31;52070;53.760;9.678;2024-02-21T00:32:42;8.97;91.27
65374;SHT31;52070;53.760;9.678;2024-02-21T00:35:09;8.98;91.25
65374;SHT31;52070;53.760;9.678;2024-02-21T00:37:36;9.00;91.10
65374;SHT31;52070;53.760;9.678;2024-02-21T00:40:06;9.01;91.15
65374;SHT31;52070;53.760;9.678;2024-02-21T00:42:33;9.03;91.13
65374;SHT31;52070;53.760;9.678;2024-02-21T00:45:00;9.01;91.10
65374;SHT31;52070;53.760;9.678;2024-02-21T00:47:27;9.01;91.12
65374;SHT31;52070;53.760;9.678;2024-02-21T00:49:54;9.00;91.07
65374;SHT31;52070;53.760;9.678;2024-02-21T00:52:21;9.05;90.94
65374;SHT31;52070;53.760;9.678;2024-02-21T00:54:48;9.10;90.94
65374;SHT31;52070;53.760;9.678;2024-02-21T00:57:17;9.10;90.85
65374;SHT31;52070;53.760;9.678;2024-02-21T00:59:44;9.12;90.83
65374;SHT31;52070;53.760;9.678;2024-02-21T01:02:11;9.17;90.82
65374;SHT31;52070;53.760;9.678;2024-02-21T01:04:38;9.15;90.80
65374;SHT31;52070;53.760;9.678;2024-02-21T01:07:04;9.15;90.96
65374;SHT31;52070;53.760;9.678;2024-02-21T01:09:31;9.11;91.19
65374;SHT31;52070;53.760;9.678;2024-02-21T01:11:58;9.14;91.36
65374;SHT31;52070;53.760;9.678;2024-02-21T01:14:27;9.07;91.69
65374;SHT31;52070;53.760;9.678;2024-02-21T01:16:54;9.04;91.94
65374;SHT31;52070;53.760;9.678;2024-02-21T01:19:20;9.01;92.26
65374;SHT31;52070;53.760;9.678;2024-02-21T01:21:47;9.01;92.53
65374;SHT31;52070;53.760;9.678;2024-02-21T01:24:14;9.00;92.70
65374;SHT31;52070;53.760;9.678;2024-02-21T01:26:41;8.97;92.83
65374;SHT31;52070;53.760;9.678;2024-02-21T01:29:08;8.97;93.05
65374;SHT31;52070;53.760;9.678;2024-02-21T01:31:37;8.91;93.38
65374;SHT31;52070;53.760;9.678;2024-02-21T01:34:04;8.84;93.75
65374;SHT31;52070;53.760;9.678;2024-02-21T01:36:31;8.83;94.10
65374;SHT31;52070;53.760;9.678;2024-02-21T01:38:58;8.78;94.40
65374;SHT31;52070;53.760;9.678;2024-02-21T01:41:25;8.80;94.61
65374;SHT31;52070;53.760;9.678;2024-02-21T01:43:52;8.76;94.80
65374;SHT31;52070;53.760;9.678;2024-02-21T01:46:19;8.73;94.95
65374;SHT31;52070;53.760;9.678;2024-02-21T01:48:47;8.73;95.15
65374;SHT31;52070;53.760;9.678;2024-02-21T01:51:15;8.71;95.24
65374;SHT31;52070;53.760;9.678;2024-02-21T01:53:43;8.70;95.37
65374;SHT31;52070;53.760;9.678;2024-02-21T01:56:10;8.68;95.52
65374;SHT31;52070;53.760;9.678;2024-02-21T01:58:39;8.63;95.65
65374;SHT31;52070;53.760;9.678;2024-02-21T02:01:07;8.61;95.80
65374;SHT31;52070;53.760;9.678;2024-02-21T02:03:34;8.60;95.94
65374;SHT31;52070;53.760;9.678;2024-02-21T02:06:04;8.59;95.99
65374;SHT31;52070;53.760;9.678;2024-02-21T02:08:32;8.60;96.07
65374;SHT31;52070;53.760;9.678;2024-02-21T02:10:59;8.61;96.07
65374;SHT31;52070;53.760;9.678;2024-02-21T02:13:26;8.61;96.05
65374;SHT31;52070;53.760;9.678;2024-02-21T02:15:53;8.61;96.09
65374;SHT31;52070;53.760;9.678;2024-02-21T02:18:20;8.64;96.06
65374;SHT31;52070;53.760;9.678;2024-02-21T02:20:47;8.63;96.02
65374;SHT31;52070;53.760;9.678;2024-02-21T02:23:21;8.63;96.02
65374;SHT31;52070;53.760;9.678;2024-02-21T02:25:48;8.63;96.03
65374;SHT31;52070;53.760;9.678;2024-02-21T02:28:18;8.64;96.00
65374;SHT31;52070;53.760;9.678;2024-02-21T02:30:44;8.67;95.94
65374;SHT31;52070;53.760;9.678;2024-02-21T02:33:11;8.67;95.83
65374;SHT31;52070;53.760;9.678;2024-02-21T02:35:38;8.71;95.73
65374;SHT31;52070;53.760;9.678;2024-02-21T02:38:05;8.74;95.53
65374;SHT31;52070;53.760;9.678;2024-02-21T02:40:34;8.76;95.45
65374;SHT31;52070;53.760;9.678;2024-02-21T02:43:02;8.77;95.30
65374;SHT31;52070;53.760;9.678;2024-02-21T02:45:29;8.77;95.21
65374;SHT31;52070;53.760;9.678;2024-02-21T02:47:57;8.80;95.06
65374;SHT31;52070;53.760;9.678;2024-02-21T02:50:24;8.81;94.99
65374;SHT31;52070;53.760;9.678;2024-02-21T02:52:52;8.81;94.91
65374;SHT31;52070;53.760;9.678;2024-02-21T02:55:19;8.81;94.77
65374;SHT31;52070;53.760;9.678;2024-02-21T02:57:47;8.81;94.67
65374;SHT31;52070;53.760;9.678;2024-02-21T03:00:15;8.84;94.60
65374;SHT31;52070;53.760;9.678;2024-02-21T03:02:43;8.83;94.48
65374;SHT31;52070;53.760;9.678;2024-02-21T03:05:14;8.84;94.41
65374;SHT31;52070;53.760;9.678;2024-02-21T03:07:41;8.83;94.34
65374;SHT31;52070;53.760;9.678;2024-02-21T03:10:08;8.90;94.17
65374;SHT31;52070;53.760;9.678;2024-02-21T03:12:35;8.90;94.05
65374;SHT31;52070;53.760;9.678;2024-02-21T03:15:05;8.88;94.07
65374;SHT31;52070;53.760;9.678;2024-02-21T03:17:32;8.88;94.15
65374;SHT31;52070;53.760;9.678;2024-02-21T03:20:00;8.88;94.25
65374;SHT31;52070;53.760;9.678;2024-02-21T03:22:30;8.85;94.44
65374;SHT31;52070;53.760;9.678;2024-02-21T03:24:57;8.84;94.57
65374;SHT31;52070;53.760;9.678;2024-02-21T03:27:24;8.83;94.71
65374;SHT31;52070;53.760;9.678;2024-02-21T03:29:51;8.80;94.88
65374;SHT31;52070;53.760;9.678;2024-02-21T03:32:19;8.80;95.02
65374;SHT31;52070;53.760;9.678;2024-02-21T03:34:46;8.78;95.10
65374;SHT31;52070;53.760;9.678;2024-02-21T03:37:13;8.78;95.23
65374;SHT31;52070;53.760;9.678;2024-02-21T03:39:40;8.74;95.38
65374;SHT31;52070;53.760;9.678;2024-02-21T03:42:07;8.71;95.48
65374;SHT31;52070;53.760;9.678;2024-02-21T03:44:34;8.71;95.60
65374;SHT31;52070;53.760;9.678;2024-02-21T03:47:01;8.71;95.68
65374;SHT31;52070;53.760;9.678;2024-02-21T03:49:30;8.70;95.75
65374;SHT31;52070;53.760;9.678;2024-02-21T03:51:57;8.68;95.83
65374;SHT31;52070;53.760;9.678;2024-02-21T03:54:24;8.68;95.92
65374;SHT31;52070;53.760;9.678;2024-02-21T03:56:51;8.66;96.08
65374;SHT31;52070;53.760;9.678;2024-02-21T03:59:18;8.67;96.13
65374;SHT31;52070;53.760;9.678;2024-02-21T04:01:45;8.66;96.21
65374;SHT31;52070;53.760;9.678;2024-02-21T04:04:12;8.67;96.30
65374;SHT31;52070;53.760;9.678;2024-02-21T04:06:47;8.66;96.35
65374;SHT31;52070;53.760;9.678;2024-02-21T04:09:14;8.63;96.46
65374;SHT31;52070;53.760;9.678;2024-02-21T04:11:41;8.63;96.53
65374;SHT31;52070;53.760;9.678;2024-02-21T04:14:08;8.61;96.61
65374;SHT31;52070;53.760;9.678;2024-02-21T04:16:37;8.61;96.67
65374;SHT31;52070;53.760;9.678;2024-02-21T04:19:04;8.60;96.76
65374;SHT31;52070;53.760;9.678;2024-02-21T04:21:31;8.61;96.83
65374;SHT31;52070;53.760;9.678;2024-02-21T04:23:59;8.61;96.90
65374;SHT31;52070;53.760;9.678;2024-02-21T04:26:27;8.57;96.96
65374;SHT31;52070;53.760;9.678;2024-02-21T04:28:54;8.59;97.00
65374;SHT31;52070;53.760;9.678;2024-02-21T04:31:21;8.59;97.10
65374;SHT31;52070;53.760;9.678;2024-02-21T04:33:48;8.60;97.12
65374;SHT31;52070;53.760;9.678;2024-02-21T04:36:15;8.60;97.15
65374;SHT31;52070;53.760;9.678;2024-02-21T04:38:42;8.61;97.18
65374;SHT31;52070;53.760;9.678;2024-02-21T04:41:11;8.61;97.23
65374;SHT31;52070;53.760;9.678;2024-02-21T04:43:38;8.57;97.29
65374;SHT31;52070;53.760;9.678;2024-02-21T04:46:05;8.57;97.31
65374;SHT31;52070;53.760;9.678;2024-02-21T04:48:31;8.57;97.36
65374;SHT31;52070;53.760;9.678;2024-02-21T04:50:59;8.56;97.40
65374;SHT31;52070;53.760;9.678;2024-02-21T04:53:26;8.56;97.44
65374;SHT31;52070;53.760;9.678;2024-02-21T04:55:53;8.56;97.49
65374;SHT31;52070;53.760;9.678;2024-02-21T04:58:21;8.56;97.57
65374;SHT31;52070;53.760;9.678;2024-02-21T05:00:48;8.59;97.63
65374;SHT31;52070;53.760;9.678;2024-02-21T05:03:15;8.54;97.64
65374;SHT31;52070;53.760;9.678;2024-02-21T05:05:42;8.59;97.66
65374;SHT31;52070;53.760;9.678;2024-02-21T05:08:09;8.54;97.68
65374;SHT31;52070;53.760;9.678;2024-02-21T05:10:37;8.56;97.71
65374;SHT31;52070;53.760;9.678;2024-02-21T05:13:04;8.56;97.72
65374;SHT31;52070;53.760;9.678;2024-02-21T05:15:32;8.56;97.76
65374;SHT31;52070;53.760;9.678;2024-02-21T05:17:59;8.56;97.78
65374;SHT31;52070;53.760;9.678;2024-02-21T05:20:26;8.57;97.81
65374;SHT31;52070;53.760;9.678;2024-02-21T05:22:53;8.56;97.81
65374;SHT31;52070;53.760;9.678;2024-02-21T05:25:20;8.56;97.81
65374;SHT31;52070;53.760;9.678;2024-02-21T05:27:47;8.56;97.83
65374;SHT31;52070;53.760;9.678;2024-02-21T05:30:14;8.57;97.87
65374;SHT31;52070;53.760;9.678;2024-02-21T05:32:42;8.54;97.93
65374;SHT31;52070;53.760;9.678;2024-02-21T05:35:09;8.53;97.95
65374;SHT31;52070;53.760;9.678;2024-02-21T05:37:36;8.56;98.03
65374;SHT31;52070;53.760;9.678;2024-02-21T05:40:05;8.53;98.01
65374;SHT31;52070;53.760;9.678;2024-02-21T05:42:32;8.52;98.03
65374;SHT31;52070;53.760;9.678;2024-02-21T05:44:59;8.52;98.03
65374;SHT31;52070;53.760;9.678;2024-02-21T05:47:26;8.52;98.01
65374;SHT31;52070;53.760;9.678;2024-02-21T05:49:54;8.49;97.95
65374;SHT31;52070;53.760;9.678;2024-02-21T05:52:21;8.52;97.94
65374;SHT31;52070;53.760;9.678;2024-02-21T05:54:49;8.52;97.92
65374;SHT31;52070;53.760;9.678;2024-02-21T05:57:17;8.47;97.91
65374;SHT31;52070;53.760;9.678;2024-02-21T05:59:44;8.50;97.91
65374;SHT31;52070;53.760;9.678;2024-02-21T06:02:11;8.47;97.91
65374;SHT31;52070;53.760;9.678;2024-02-21T06:04:38;8.47;97.94
65374;SHT31;52070;53.760;9.678;2024-02-21T06:07:07;8.50;97.97
65374;SHT31;52070;53.760;9.678;2024-02-21T06:09:34;8.49;97.99
65374;SHT31;52070;53.760;9.678;2024-02-21T06:12:01;8.46;98.00
65374;SHT31;52070;53.760;9.678;2024-02-21T06:14:28;8.49;97.99
65374;SHT31;52070;53.760;9.678;2024-02-21T06:16:55;8.47;98.04
65374;SHT31;52070;53.760;9.678;2024-02-21T06:19:22;8.46;98.11
65374;SHT31;52070;53.760;9.678;2024-02-21T06:21:49;8.46;98.09
65374;SHT31;52070;53.760;9.678;2024-02-21T06:24:17;8.49;98.14
65374;SHT31;52070;53.760;9.678;2024-02-21T06:26:44;8.49;98.14
65374;SHT31;52070;53.760;9.678;2024-02-21T06:29:11;8.47;98.19
65374;SHT31;52070;53.760;9.678;2024-02-21T06:31:40;8.46;98.23
65374;SHT31;52070;53.760;9.678;2024-02-21T06:34:07;8.47;98.20
65374;SHT31;52070;53.760;9.678;2024-02-21T06:36:34;8.45;98.26
65374;SHT31;52070;53.760;9.678;2024-02-21T06:39:01;8.45;98.25
65374;SHT31;52070;53.760;9.678;2024-02-21T06:41:31;8.45;98.31
65374;SHT31;52070;53.760;9.678;2024-02-21T06:43:59;8.47;98.34
65374;SHT31;52070;53.760;9.678;2024-02-21T06:46:27;8.49;98.31
65374;SHT31;52070;53.760;9.678;2024-02-21T06:48:55;8.46;98.33
65374;SHT31;52070;53.760;9.678;2024-02-21T06:51:23;8.46;98.32
65374;SHT31;52070;53.760;9.678;2024-02-21T06:54:09;8.49;98.33
65374;SHT31;52070;53.760;9.678;2024-02-21T06:56:57;8.49;98.28
65374;SHT31;52070;53.760;9.678;2024-02-21T06:59:45;8.46;98.28
65374;SHT31;52070;53.760;9.678;2024-02-21T07:02:32;8.43;98.23
65374;SHT31;52070;53.760;9.678;2024-02-21T07:05:19;8.40;98.21
65374;SHT31;52070;53.760;9.678;2024-02-21T07:08:06;8.42;98.12
65374;SHT31;52070;53.760;9.678;2024-02-21T07:10:54;8.42;98.06
65374;SHT31;52070;53.760;9.678;2024-02-21T07:13:42;8.39;98.05
65374;SHT31;52070;53.760;9.678;2024-02-21T07:16:30;8.39;98.01
65374;SHT31;52070;53.760;9.678;2024-02-21T07:19:18;8.42;97.94
65374;SHT31;52070;53.760;9.678;2024-02-21T07:22:05;8.43;97.87
65374;SHT31;52070;53.760;9.678;2024-02-21T07:24:53;8.37;97.82
65374;SHT31;52070;53.760;9.678;2024-02-21T07:27:40;8.36;97.77
65374;SHT31;52070;53.760;9.678;2024-02-21T07:30:29;8.35;97.63
65374;SHT31;52070;53.760;9.678;2024-02-21T07:33:16;8.35;97.55
65374;SHT31;52070;53.760;9.678;2024-02-21T07:36:06;8.30;97.14
65374;SHT31;52070;53.760;9.678;2024-02-21T07:38:55;8.36;97.10
65374;SHT31;52070;53.760;9.678;2024-02-21T07:41:43;8.33;96.93
65374;SHT31;52070;53.760;9.678;2024-02-21T07:44:32;8.36;96.76
65374;SHT31;52070;53.760;9.678;2024-02-21T07:47:22;8.32;96.34
65374;SHT31;52070;53.760;9.678;2024-02-21T07:50:10;8.36;96.18
65374;SHT31;52070;53.760;9.678;2024-02-21T07:52:36;8.33;95.99
65374;SHT31;52070;53.760;9.678;2024-02-21T07:55:04;8.36;95.89
65374;SHT31;52070;53.760;9.678;2024-02-21T07:57:31;8.37;95.76
65374;SHT31;52070;53.760;9.678;2024-02-21T07:59:58;8.39;95.66
65374;SHT31;52070;53.760;9.678;2024-02-21T08:02:26;8.42;95.48
65374;SHT31;52070;53.760;9.678;2024-02-21T08:04:53;8.40;95.18
65374;SHT31;52070;53.760;9.678;2024-02-21T08:07:20;8.37;95.09
65374;SHT31;52070;53.760;9.678;2024-02-21T08:09:47;8.43;95.01
65374;SHT31;52070;53.760;9.678;2024-02-21T08:12:14;8.45;95.00
65374;SHT31;52070;53.760;9.678;2024-02-21T08:14:41;8.45;95.05
65374;SHT31;52070;53.760;9.678;2024-02-21T08:17:11;8.43;95.00
65374;SHT31;52070;53.760;9.678;2024-02-21T08:19:39;8.49;94.84
65374;SHT31;52070;53.760;9.678;2024-02-21T08:22:06;8.46;94.73
65374;SHT31;52070;53.760;9.678;2024-02-21T08:24:33;8.49;94.59
65374;SHT31;52070;53.760;9.678;2024-02-21T08:27:02;8.45;94.54
65374;SHT31;52070;53.760;9.678;2024-02-21T08:29:31;8.49;94.30
65374;SHT31;52070;53.760;9.678;2024-02-21T08:31:58;8.50;94.13
65374;SHT31;52070;53.760;9.678;2024-02-21T08:34:25;8.56;94.09
65374;SHT31;52070;53.760;9.678;2024-02-21T08:36:56;8.64;94.03
65374;SHT31;52070;53.760;9.678;2024-02-21T08:39:23;8.68;94.05
65374;SHT31;52070;53.760;9.678;2024-02-21T08:41:50;8.61;93.94
65374;SHT31;52070;53.760;9.678;2024-02-21T08:44:17;8.70;93.91
65374;SHT31;52070;53.760;9.678;2024-02-21T08:46:44;8.66;93.62
65374;SHT31;52070;53.760;9.678;2024-02-21T08:49:12;8.68;93.35
65374;SHT31;52070;53.760;9.678;2024-02-21T08:51:40;8.74;93.32
65374;SHT31;52070;53.760;9.678;2024-02-21T08:54:08;8.73;93.19
65374;SHT31;52070;53.760;9.678;2024-02-21T08:56:35;8.80;93.21
65374;SHT31;52070;53.760;9.678;2024-02-21T08:59:02;8.78;92.90
65374;SHT31;52070;53.760;9.678;2024-02-21T09:01:29;8.74;92.80
65374;SHT31;52070;53.760;9.678;2024-02-21T09:03:56;8.78;92.71
65374;SHT31;52070;53.760;9.678;2024-02-21T09:06:23;8.78;92.79
65374;SHT31;52070;53.760;9.678;2024-02-21T09:08:50;8.73;92.34
65374;SHT31;52070;53.760;9.678;2024-02-21T09:11:19;8.77;92.34
65374;SHT31;52070;53.760;9.678;2024-02-21T09:13:46;8.80;92.30
65374;SHT31;52070;53.760;9.678;2024-02-21T09:16:13;8.83;92.48
65374;SHT31;52070;53.760;9.678;2024-02-21T09:18:40;8.81;92.27
65374;SHT31;52070;53.760;9.678;2024-02-21T09:21:08;8.80;92.41
65374;SHT31;52070;53.760;9.678;2024-02-21T09:23:35;8.81;92.52
65374;SHT31;52070;53.760;9.678;2024-02-21T09:26:02;8.80;92.72
65374;SHT31;52070;53.760;9.678;2024-02-21T09:28:31;8.85;92.68
65374;SHT31;52070;53.760;9.678;2024-02-21T09:31:00;8.78;92.79
65374;SHT31;52070;53.760;9.678;2024-02-21T09:33:27;8.78;92.76
65374;SHT31;52070;53.760;9.678;2024-02-21T09:35:54;8.74;92.94
65374;SHT31;52070;53.760;9.678;2024-02-21T09:38:21;8.70;93.26
65374;SHT31;52070;53.760;9.678;2024-02-21T09:40:54;8.74;93.46
65374;SHT31;52070;53.760;9.678;2024-02-21T09:43:25;8.71;93.68
65374;SHT31;52070;53.760;9.678;2024-02-21T09:45:55;8.74;93.86
65374;SHT31;52070;53.760;9.678;2024-02-21T09:48:38;8.68;94.29
65374;SHT31;52070;53.760;9.678;2024-02-21T09:51:10;8.76;94.64
65374;SHT31;52070;53.760;9.678;2024-02-21T09:53:40;8.73;94.95
65374;SHT31;52070;53.760;9.678;2024-02-21T09:56:08;8.71;95.15
65374;SHT31;52070;53.760;9.678;2024-02-21T09:58:36;8.70;95.36
65374;SHT31;52070;53.760;9.678;2024-02-21T10:01:04;8.71;95.56
65374;SHT31;52070;53.760;9.678;2024-02-21T10:03:32;8.73;95.67
65374;SHT31;52070;53.760;9.678;2024-02-21T10:06:00;8.80;95.86
65374;SHT31;52070;53.760;9.678;2024-02-21T10:08:28;8.67;95.97
65374;SHT31;52070;53.760;9.678;2024-02-21T10:10:55;8.70;95.97
65374;SHT31;52070;53.760;9.678;2024-02-21T10:13:26;8.83;96.09
65374;SHT31;52070;53.760;9.678;2024-02-21T10:16:05;8.76;96.14
65374;SHT31;52070;53.760;9.678;2024-02-21T10:18:32;8.73;96.20
65374;SHT31;52070;53.760;9.678;2024-02-21T10:21:01;8.76;96.27
65374;SHT31;52070;53.760;9.678;2024-02-21T10:23:28;8.80;96.40
65374;SHT31;52070;53.760;9.678;2024-02-21T10:26:04;8.81;96.49
65374;SHT31;52070;53.760;9.678;2024-02-21T10:28:31;8.77;96.60
65374;SHT31;52070;53.760;9.678;2024-02-21T10:30:58;8.74;96.61
65374;SHT31;52070;53.760;9.678;2024-02-21T10:33:27;8.74;96.71
65374;SHT31;52070;53.760;9.678;2024-02-21T10:36:06;8.76;96.79
65374;SHT31;52070;53.760;9.678;2024-02-21T10:38:33;8.74;96.85
65374;SHT31;52070;53.760;9.678;2024-02-21T10:41:00;8.78;96.88
65374;SHT31;52070;53.760;9.678;2024-02-21T10:43:30;8.80;96.98
65374;SHT31;52070;53.760;9.678;2024-02-21T10:46:03;8.80;97.03
65374;SHT31;52070;53.760;9.678;2024-02-21T10:48:33;8.84;97.04
65374;SHT31;52070;53.760;9.678;2024-02-21T10:51:07;8.87;97.14
65374;SHT31;52070;53.760;9.678;2024-02-21T10:53:44;8.94;97.16
65374;SHT31;52070;53.760;9.678;2024-02-21T10:56:19;9.05;97.23
65374;SHT31;52070;53.760;9.678;2024-02-21T10:58:48;9.08;97.28
65374;SHT31;52070;53.760;9.678;2024-02-21T11:01:15;9.12;97.26
65374;SHT31;52070;53.760;9.678;2024-02-21T11:03:47;9.12;97.32
65374;SHT31;52070;53.760;9.678;2024-02-21T11:06:17;9.11;97.31
65374;SHT31;52070;53.760;9.678;2024-02-21T11:08:44;9.08;97.23
65374;SHT31;52070;53.760;9.678;2024-02-21T11:11:12;9.11;97.17
65374;SHT31;52070;53.760;9.678;2024-02-21T11:13:43;9.11;97.08
65374;SHT31;52070;53.760;9.678;2024-02-21T11:16:21;9.11;97.00
65374;SHT31;52070;53.760;9.678;2024-02-21T11:18:50;9.07;96.82
65374;SHT31;52070;53.760;9.678;2024-02-21T11:21:17;9.12;96.61
65374;SHT31;52070;53.760;9.678;2024-02-21T11:23:54;9.10;96.55
65374;SHT31;52070;53.760;9.678;2024-02-21T11:26:22;9.08;96.48
65374;SHT31;52070;53.760;9.678;2024-02-21T11:28:56;9.08;96.41
65374;SHT31;52070;53.760;9.678;2024-02-21T11:31:23;9.04;96.32
65374;SHT31;52070;53.760;9.678;2024-02-21T11:33:54;9.07;96.31
65374;SHT31;52070;53.760;9.678;2024-02-21T11:36:25;9.08;96.36
65374;SHT31;52070;53.760;9.678;2024-02-21T11:38:52;9.07;96.33
65374;SHT31;52070;53.760;9.678;2024-02-21T11:41:20;9.11;96.37
65374;SHT31;52070;53.760;9.678;2024-02-21T11:43:48;9.12;96.43
65374;SHT31;52070;53.760;9.678;2024-02-21T11:46:16;9.15;96.48
65374;SHT31;52070;53.760;9.678;2024-02-21T11:48:44;9.11;96.42
65374;SHT31;52070;53.760;9.678;2024-02-21T11:51:24;9.10;96.32
65374;SHT31;52070;53.760;9.678;2024-02-21T11:53:52;9.03;96.30
65374;SHT31;52070;53.760;9.678;2024-02-21T11:56:19;9.05;96.12
65374;SHT31;52070;53.760;9.678;2024-02-21T11:58:48;9.01;96.00
65374;SHT31;52070;53.760;9.678;2024-02-21T12:01:15;8.98;95.85
65374;SHT31;52070;53.760;9.678;2024-02-21T12:03:42;8.94;95.71
65374;SHT31;52070;53.760;9.678;2024-02-21T12:06:16;8.96;95.63
65374;SHT31;52070;53.760;9.678;2024-02-21T12:08:46;8.96;95.70
65374;SHT31;52070;53.760;9.678;2024-02-21T12:11:19;8.97;95.78
65374;SHT31;52070;53.760;9.678;2024-02-21T12:13:46;9.00;95.77
65374;SHT31;52070;53.760;9.678;2024-02-21T12:16:15;8.94;95.66
65374;SHT31;52070;53.760;9.678;2024-02-21T12:18:42;8.91;95.54
65374;SHT31;52070;53.760;9.678;2024-02-21T12:21:09;8.87;95.30
65374;SHT31;52070;53.760;9.678;2024-02-21T12:23:38;8.81;95.19
65374;SHT31;52070;53.760;9.678;2024-02-21T12:26:06;8.78;95.08
65374;SHT31;52070;53.760;9.678;2024-02-21T12:28:33;8.80;95.01
65374;SHT31;52070;53.760;9.678;2024-02-21T12:31:01;8.81;95.12
65374;SHT31;52070;53.760;9.678;2024-02-21T12:33:30;8.88;95.27
65374;SHT31;52070;53.760;9.678;2024-02-21T12:35:58;8.81;95.25
65374;SHT31;52070;53.760;9.678;2024-02-21T12:38:25;8.80;95.23
65374;SHT31;52070;53.760;9.678;2024-02-21T12:40:54;8.80;95.08
65374;SHT31;52070;53.760;9.678;2024-02-21T12:43:24;8.78;95.14
65374;SHT31;52070;53.760;9.678;2024-02-21T12:45:51;8.71;95.11
65374;SHT31;52070;53.760;9.678;2024-02-21T12:48:18;8.74;95.19
65374;SHT31;52070;53.760;9.678;2024-02-21T12:50:49;8.71;95.31
65374;SHT31;52070;53.760;9.678;2024-02-21T12:53:17;8.73;95.39
65374;SHT31;52070;53.760;9.678;2024-02-21T12:55:45;8.76;95.46
65374;SHT31;52070;53.760;9.678;2024-02-21T12:58:12;8.77;95.33
65374;SHT31;52070;53.760;9.678;2024-02-21T13:00:40;8.76;95.21
65374;SHT31;52070;53.760;9.678;2024-02-21T13:03:08;8.78;95.06
65374;SHT31;52070;53.760;9.678;2024-02-21T13:05:36;8.81;95.03
65374;SHT31;52070;53.760;9.678;2024-02-21T13:08:05;8.81;94.88
65374;SHT31;52070;53.760;9.678;2024-02-21T13:10:31;8.84;94.81
65374;SHT31;52070;53.760;9.678;2024-02-21T13:12:59;8.85;94.66
65374;SHT31;52070;53.760;9.678;2024-02-21T13:15:26;8.87;94.51
65374;SHT31;52070;53.760;9.678;2024-02-21T13:17:55;8.87;94.24
65374;SHT31;52070;53.760;9.678;2024-02-21T13:20:22;8.92;93.99
65374;SHT31;52070;53.760;9.678;2024-02-21T13:22:49;8.94;94.08
65374;SHT31;52070;53.760;9.678;2024-02-21T13:25:16;8.96;94.05
65374;SHT31;52070;53.760;9.678;2024-02-21T13:27:46;8.92;93.81
65374;SHT31;52070;53.760;9.678;2024-02-21T13:30:14;8.90;93.66
65374;SHT31;52070;53.760;9.678;2024-02-21T13:32:41;8.91;93.42
65374;SHT31;52070;53.760;9.678;2024-02-21T13:35:10;8.94;93.25
65374;SHT31;52070;53.760;9.678;2024-02-21T13:37:38;9.00;93.37
65374;SHT31;52070;53.760;9.678;2024-02-21T13:40:06;9.04;93.24
65374;SHT31;52070;53.760;9.678;2024-02-21T13:42:34;9.01;93.28
65374;SHT31;52070;53.760;9.678;2024-02-21T13:45:01;9.07;93.24
65374;SHT31;52070;53.760;9.678;2024-02-21T13:47:29;9.10;93.27
65374;SHT31;52070;53.760;9.678;2024-02-21T13:49:56;9.08;93.10
65374;SHT31;52070;53.760;9.678;2024-02-21T13:52:24;9.07;92.90
65374;SHT31;52070;53.760;9.678;2024-02-21T13:54:52;9.07;92.67
65374;SHT31;52070;53.760;9.678;2024-02-21T13:57:19;9.10;92.24
65374;SHT31;52070;53.760;9.678;2024-02-21T13:59:46;9.10;92.26
65374;SHT31;52070;53.760;9.678;2024-02-21T14:02:13;9.15;91.96
65374;SHT31;52070;53.760;9.678;2024-02-21T14:04:40;9.22;92.00
65374;SHT31;52070;53.760;9.678;2024-02-21T14:07:08;9.22;91.90
65374;SHT31;52070;53.760;9.678;2024-02-21T14:09:36;9.28;91.60
65374;SHT31;52070;53.760;9.678;2024-02-21T14:12:04;9.30;91.50
65374;SHT31;52070;53.760;9.678;2024-02-21T14:14:34;9.34;91.63
65374;SHT31;52070;53.760;9.678;2024-02-21T14:17:01;9.31;91.56
65374;SHT31;52070;53.760;9.678;2024-02-21T14:19:29;9.30;91.19
65374;SHT31;52070;53.760;9.678;2024-02-21T14:21:56;9.27;91.08
65374;SHT31;52070;53.760;9.678;2024-02-21T14:24:23;9.32;91.11
65374;SHT31;52070;53.760;9.678;2024-02-21T14:26:51;9.36;90.84
65374;SHT31;52070;53.760;9.678;2024-02-21T14:29:18;9.43;91.07
65374;SHT31;52070;53.760;9.678;2024-02-21T14:31:46;9.43;90.82
65374;SHT31;52070;53.760;9.678;2024-02-21T14:34:13;9.48;90.65
65374;SHT31;52070;53.760;9.678;2024-02-21T14:36:40;9.46;90.19
65374;SHT31;52070;53.760;9.678;2024-02-21T14:39:07;9.42;89.99
65374;SHT31;52070;53.760;9.678;2024-02-21T14:41:34;9.45;89.84
65374;SHT31;52070;53.760;9.678;2024-02-21T14:44:03;9.46;90.04
65374;SHT31;52070;53.760;9.678;2024-02-21T14:46:30;9.49;89.98
65374;SHT31;52070;53.760;9.678;2024-02-21T14:48:57;9.48;89.72
65374;SHT31;52070;53.760;9.678;2024-02-21T14:51:24;9.46;89.77
65374;SHT31;52070;53.760;9.678;2024-02-21T14:53:51;9.46;89.61
65374;SHT31;52070;53.760;9.678;2024-02-21T14:56:18;9.48;89.54
65374;SHT31;52070;53.760;9.678;2024-02-21T14:58:45;9.45;89.58
65374;SHT31;52070;53.760;9.678;2024-02-21T15:01:14;9.45;89.70
65374;SHT31;52070;53.760;9.678;2024-02-21T15:03:41;9.48;89.63
65374;SHT31;52070;53.760;9.678;2024-02-21T15:06:08;9.43;89.27
65374;SHT31;52070;53.760;9.678;2024-02-21T15:08:35;9.42;88.75
65374;SHT31;52070;53.760;9.678;2024-02-21T15:11:03;9.42;88.52
65374;SHT31;52070;53.760;9.678;2024-02-21T15:13:30;9.41;88.58
65374;SHT31;52070;53.760;9.678;2024-02-21T15:15:57;9.41;88.75
65374;SHT31;52070;53.760;9.678;2024-02-21T15:18:25;9.41;88.35
65374;SHT31;52070;53.760;9.678;2024-02-21T15:20:52;9.38;88.66
65374;SHT31;52070;53.760;9.678;2024-02-21T15:23:19;9.36;88.52
65374;SHT31;52070;53.760;9.678;2024-02-21T15:25:46;9.32;88.69
65374;SHT31;52070;53.760;9.678;2024-02-21T15:28:13;9.32;88.64
65374;SHT31;52070;53.760;9.678;2024-02-21T15:30:39;9.30;88.54
65374;SHT31;52070;53.760;9.678;2024-02-21T15:33:06;9.31;87.79
65374;SHT31;52070;53.760;9.678;2024-02-21T15:35:34;9.28;87.74
65374;SHT31;52070;53.760;9.678;2024-02-21T15:38:01;9.28;87.54
65374;SHT31;52070;53.760;9.678;2024-02-21T15:40:29;9.30;87.23
65374;SHT31;52070;53.760;9.678;2024-02-21T15:42:56;9.28;87.22
65374;SHT31;52070;53.760;9.678;2024-02-21T15:45:23;9.30;87.24
65374;SHT31;52070;53.760;9.678;2024-02-21T15:47:50;9.25;87.27
65374;SHT31;52070;53.760;9.678;2024-02-21T15:50:17;9.25;86.47
65374;SHT31;52070;53.760;9.678;2024-02-21T15:52:46;9.24;86.92
65374;SHT31;52070;53.760;9.678;2024-02-21T15:55:13;9.20;87.13